EKRK/RKE METAR and TAF weather

Enter ICAO airport designator
Station Type Date Time Source
EKRK METAR 2020/11/27 02:50 UTC NOAA

EKRK 270250Z AUTO 32006KT 9999 NCD 03/03 Q1019


Station Type Date Time Source
EKRK Decoded METAR 2020/11/27 02:50 UTC NOAA

Koebenhavn / Roskilde, Denmark (EKRK) 55-35N 012-08E 44M
Nov 26, 2020 - 09:50 PM EST / 2020.11.27 0250 UTC
Wind: from the NW (320 degrees) at 7 MPH (6 KT):0
Visibility: greater than 7 mile(s):0
Temperature: 37 F (3 C)
Dew Point: 37 F (3 C)
Relative Humidity: 100%
Pressure (altimeter): 30.09 in. Hg (1019 hPa)
ob: EKRK 270250Z AUTO 32006KT 9999 NCD 03/03 Q1019
cycle: 3

Station Type Date Time Source
EKRK TAF 2020/10/13 06:33 UTC NOAA

TAF EKRK 130526Z 1306/1415 09004KT 0200 FG VV001
TEMPO 1306/1307 6000 NSW NSC
BECMG 1307/1309 9999 NSW FEW020

Example: see airport list